Time;durP1;ratioP1;P1;durP2;ratioP2;P2;SDS_P1;SDS_P2;PMS_P1;PMS_P2;Temp;Humidity;BMP_temperature;BMP_pressure;BME280_temperature;BME280_humidity;BME280_pressure;Samples;Min_cycle;Max_cycle;Signal;HPM_P1;HPM_P2
2021/01/24 00:01:46;;;;;;;17.37;11.17;;;3.50;99.90;;;;;;4954069;29;20178;-65
2021/01/24 00:04:11;;;;;;;14.30;10.53;;;3.50;99.90;;;;;;4954419;28;20190;-65
2021/01/24 00:06:37;;;;;;;14.40;10.63;;;3.50;99.90;;;;;;4954067;29;20181;-64
2021/01/24 00:09:03;;;;;;;14.47;10.17;;;3.50;99.90;;;;;;4953898;29;20587;-65
2021/01/24 00:11:28;;;;;;;15.47;10.93;;;3.50;99.90;;;;;;4953878;29;20182;-65
2021/01/24 00:13:54;;;;;;;14.20;10.43;;;3.50;99.90;;;;;;4954268;28;20292;-64
2021/01/24 00:16:20;;;;;;;13.03;9.57;;;3.60;99.90;;;;;;4954116;29;20691;-64
2021/01/24 00:18:45;;;;;;;14.37;10.60;;;3.50;99.90;;;;;;4953513;29;20218;-64
2021/01/24 00:21:11;;;;;;;13.87;10.63;;;3.50;99.90;;;;;;4953667;28;20591;-64
2021/01/24 00:23:36;;;;;;;18.07;10.27;;;3.50;99.90;;;;;;4953374;28;20237;-65
2021/01/24 00:26:02;;;;;;;14.37;9.60;;;3.60;99.90;;;;;;4934778;29;20197;-64
2021/01/24 00:28:28;;;;;;;14.77;9.87;;;3.60;99.90;;;;;;4938894;29;20197;-64
2021/01/24 00:30:53;;;;;;;13.60;9.07;;;3.50;99.90;;;;;;4953802;29;20185;-64
2021/01/24 00:33:19;;;;;;;14.57;9.83;;;3.50;99.90;;;;;;4953574;28;20232;-64
2021/01/24 00:35:45;;;;;;;12.73;9.37;;;3.50;99.90;;;;;;4953878;29;20622;-64
2021/01/24 00:38:10;;;;;;;14.20;10.40;;;3.50;99.90;;;;;;4952412;29;20266;-64
2021/01/24 00:40:36;;;;;;;14.77;10.60;;;3.50;99.90;;;;;;4953915;29;20218;-64
2021/01/24 00:43:02;;;;;;;15.23;10.70;;;3.50;99.90;;;;;;4953508;28;20245;-64
2021/01/24 00:45:27;;;;;;;17.37;11.33;;;3.50;99.90;;;;;;4953495;29;20667;-63
2021/01/24 00:47:53;;;;;;;18.13;11.00;;;3.50;99.90;;;;;;4953159;29;20269;-64
2021/01/24 00:50:19;;;;;;;13.53;9.80;;;3.40;99.90;;;;;;4953808;29;20184;-64
2021/01/24 00:52:44;;;;;;;16.67;11.70;;;3.30;99.90;;;;;;4953718;28;20248;-64
2021/01/24 00:55:10;;;;;;;16.53;11.17;;;3.10;99.90;;;;;;4953433;29;20214;-64
2021/01/24 00:57:35;;;;;;;11.13;7.13;;;2.90;99.90;;;;;;4953176;29;20178;-64
2021/01/24 01:00:03;;;;;;;15.30;9.27;;;2.70;99.90;;;;;;4953451;29;20213;-64
2021/01/24 01:02:29;;;;;;;10.53;7.10;;;2.50;99.90;;;;;;4953389;28;20209;-64
2021/01/24 01:04:54;;;;;;;11.50;7.20;;;2.30;99.90;;;;;;4953435;29;20181;-64
2021/01/24 01:07:20;;;;;;;14.37;10.43;;;2.10;99.90;;;;;;4952964;29;20186;-64
2021/01/24 01:09:45;;;;;;;13.03;9.47;;;1.90;99.90;;;;;;4953605;29;20209;-64
2021/01/24 01:12:11;;;;;;;9.63;7.30;;;1.60;99.90;;;;;;4953226;28;20206;-63
2021/01/24 01:14:37;;;;;;;9.30;6.70;;;1.40;99.90;;;;;;4953399;29;20248;-64
2021/01/24 01:17:03;;;;;;;11.93;8.00;;;1.30;99.90;;;;;;4952798;29;20178;-64
2021/01/24 01:19:28;;;;;;;12.00;8.33;;;1.20;99.90;;;;;;4953189;29;20233;-63
2021/01/24 01:21:54;;;;;;;11.83;8.93;;;1.10;99.90;;;;;;4953112;29;20219;-64
2021/01/24 01:24:20;;;;;;;8.67;6.67;;;1.10;99.90;;;;;;4953391;28;20186;-64
2021/01/24 01:26:45;;;;;;;7.50;5.23;;;1.10;99.90;;;;;;4952887;29;20226;-64
2021/01/24 01:29:11;;;;;;;8.23;5.30;;;1.00;99.90;;;;;;4953040;29;20611;-64
2021/01/24 01:31:36;;;;;;;4.77;4.20;;;1.00;99.90;;;;;;4952897;29;20178;-64
2021/01/24 01:34:02;;;;;;;8.93;5.80;;;1.00;99.90;;;;;;4955247;28;20252;-63
2021/01/24 01:36:28;;;;;;;7.03;5.17;;;1.00;99.90;;;;;;4956044;29;20174;-64
2021/01/24 01:38:53;;;;;;;5.57;4.40;;;1.00;99.90;;;;;;4956667;29;20173;-64
2021/01/24 01:41:19;;;;;;;6.87;4.50;;;1.00;99.90;;;;;;4956710;29;20193;-64
2021/01/24 01:43:44;;;;;;;6.10;4.97;;;1.00;99.90;;;;;;4956586;28;20296;-64
2021/01/24 01:46:19;;;;;;;6.93;5.50;;;1.00;99.90;;;;;;4956829;29;20265;-64
2021/01/24 01:48:45;;;;;;;9.57;5.93;;;0.90;99.90;;;;;;4956366;29;20180;-64
2021/01/24 01:51:10;;;;;;;8.20;5.80;;;0.90;99.90;;;;;;4956902;29;20182;-64
2021/01/24 01:53:37;;;;;;;6.67;5.10;;;0.90;99.90;;;;;;4956788;28;20358;-64
2021/01/24 01:56:02;;;;;;;5.60;4.93;;;0.90;99.90;;;;;;4956408;29;20322;-64
2021/01/24 01:58:28;;;;;;;7.27;6.20;;;0.80;99.90;;;;;;4956503;29;20636;-64
2021/01/24 02:00:54;;;;;;;9.23;6.40;;;0.80;99.90;;;;;;4956333;29;20178;-64
2021/01/24 02:04:10;;;;;;;7.07;6.03;;;0.80;99.90;;;;;;4956427;28;20202;-64
2021/01/24 02:06:51;;;;;;;4.77;4.37;;;0.80;99.90;;;;;;4940957;29;20229;-64
2021/01/24 02:09:32;;;;;;;3.80;3.30;;;0.70;99.90;;;;;;4956166;29;20174;-64
2021/01/24 02:12:23;;;;;;;5.77;4.17;;;0.70;99.90;;;;;;4955940;29;20205;-63
2021/01/24 02:14:57;;;;;;;3.33;2.73;;;0.70;99.90;;;;;;4956047;29;20213;-64
2021/01/24 02:17:25;;;;;;;2.20;1.97;;;0.80;99.90;;;;;;4955924;29;20166;-64
2021/01/24 02:20:06;;;;;;;2.73;2.53;;;0.70;99.90;;;;;;4956455;29;20170;-64
2021/01/24 02:22:37;;;;;;;3.40;3.10;;;0.70;99.90;;;;;;4956071;28;20194;-63
2021/01/24 02:25:29;;;;;;;2.93;2.73;;;0.70;99.90;;;;;;4956153;29;20241;-63
2021/01/24 02:28:07;;;;;;;3.30;3.00;;;0.70;99.90;;;;;;4955528;29;20196;-63
2021/01/24 02:30:36;;;;;;;3.33;3.03;;;0.70;99.90;;;;;;4956250;29;20618;-63
2021/01/24 02:33:23;;;;;;;3.83;3.50;;;0.70;99.90;;;;;;4954995;28;20288;-64
2021/01/24 02:35:55;;;;;;;3.83;3.27;;;0.70;99.90;;;;;;4955954;29;20196;-63
2021/01/24 02:38:22;;;;;;;4.30;3.90;;;0.70;99.90;;;;;;4955058;29;20178;-63
2021/01/24 02:40:48;;;;;;;4.00;3.70;;;0.70;99.90;;;;;;4955936;29;20188;-63
2021/01/24 02:43:15;;;;;;;4.07;3.30;;;0.70;99.90;;;;;;4955280;28;20305;-63
2021/01/24 02:45:42;;;;;;;3.93;3.63;;;0.70;99.90;;;;;;4954969;28;20615;-63
2021/01/24 02:48:10;;;;;;;3.00;2.50;;;0.70;99.90;;;;;;4954999;29;20252;-63
2021/01/24 02:50:36;;;;;;;13.47;3.10;;;0.60;99.90;;;;;;4955812;29;20545;-63
2021/01/24 02:53:04;;;;;;;2.40;2.20;;;0.60;99.90;;;;;;4955490;28;20218;-63
2021/01/24 02:55:30;;;;;;;6.63;2.20;;;0.60;99.90;;;;;;4955629;29;20213;-63
2021/01/24 02:57:56;;;;;;;2.20;2.00;;;0.60;99.90;;;;;;4955024;29;20632;-63
2021/01/24 03:00:22;;;;;;;5.80;2.60;;;0.60;99.90;;;;;;4955397;29;20271;-64
2021/01/24 03:02:49;;;;;;;2.70;1.83;;;0.70;99.90;;;;;;4955444;28;20230;-63
2021/01/24 03:05:15;;;;;;;1.90;1.80;;;0.70;99.90;;;;;;4955184;29;20185;-63
2021/01/24 03:07:42;;;;;;;6.17;2.10;;;0.70;99.90;;;;;;4955272;29;20182;-63
2021/01/24 03:10:08;;;;;;;2.20;2.10;;;0.60;99.90;;;;;;4955112;29;20182;-63
2021/01/24 03:12:39;;;;;;;2.03;1.87;;;0.70;99.90;;;;;;4955171;28;20300;-63
2021/01/24 03:15:06;;;;;;;2.07;1.97;;;0.70;99.90;;;;;;4955134;29;20193;-63
2021/01/24 03:17:36;;;;;;;2.10;1.90;;;0.60;99.90;;;;;;4954757;29;20182;-63
2021/01/24 03:20:06;;;;;;;1.80;1.70;;;0.60;99.90;;;;;;4955175;29;20520;-63
2021/01/24 03:22:34;;;;;;;5.13;1.80;;;0.60;99.90;;;;;;4955876;28;20676;-66
2021/01/24 03:25:02;;;;;;;2.37;2.17;;;0.60;99.90;;;;;;4956148;29;20265;-65
2021/01/24 03:27:28;;;;;;;3.03;2.70;;;0.60;99.90;;;;;;4956306;29;20553;-66
2021/01/24 03:29:54;;;;;;;2.00;1.90;;;0.60;99.90;;;;;;4956507;29;20190;-66
2021/01/24 03:32:20;;;;;;;3.03;2.77;;;0.60;99.90;;;;;;4956399;28;20214;-67
2021/01/24 03:34:46;;;;;;;4.70;3.00;;;0.60;99.90;;;;;;4956539;29;20189;-67
2021/01/24 03:37:11;;;;;;;3.80;2.23;;;0.60;99.90;;;;;;4955159;29;20174;-66
2021/01/24 03:39:37;;;;;;;3.67;2.67;;;0.60;99.90;;;;;;4955793;29;20190;-66
2021/01/24 03:42:03;;;;;;;7.37;3.37;;;0.60;99.90;;;;;;4955693;29;20554;-66
2021/01/24 03:44:29;;;;;;;3.30;3.00;;;0.60;99.90;;;;;;4954563;28;20589;-67
2021/01/24 03:46:54;;;;;;;4.50;2.87;;;0.60;99.90;;;;;;4955258;29;20190;-68
2021/01/24 03:49:21;;;;;;;4.23;3.23;;;0.60;99.90;;;;;;4955283;29;20198;-68
2021/01/24 03:51:47;;;;;;;5.57;3.17;;;0.60;99.90;;;;;;4955386;29;20282;-68
2021/01/24 03:54:12;;;;;;;4.23;3.83;;;0.60;99.90;;;;;;4955292;28;20723;-66
2021/01/24 03:56:38;;;;;;;6.17;4.10;;;0.60;99.90;;;;;;4955260;28;20257;-66
2021/01/24 03:59:04;;;;;;;5.17;3.73;;;0.60;99.90;;;;;;4954707;29;20178;-63
2021/01/24 04:01:30;;;;;;;5.27;3.97;;;0.60;99.90;;;;;;4954395;29;20640;-63
2021/01/24 04:03:57;;;;;;;6.50;4.93;;;0.60;99.90;;;;;;4954125;28;20198;-63
2021/01/24 04:06:23;;;;;;;8.43;4.53;;;0.60;99.90;;;;;;4954381;29;20185;-64
2021/01/24 04:08:48;;;;;;;9.13;4.67;;;0.60;99.90;;;;;;4953774;29;20186;-63
2021/01/24 04:11:14;;;;;;;6.50;4.77;;;0.60;99.90;;;;;;4954244;29;20683;-63
2021/01/24 04:13:40;;;;;;;7.20;4.97;;;0.60;99.90;;;;;;4953854;28;20707;-63
2021/01/24 04:16:05;;;;;;;6.27;4.10;;;0.70;99.90;;;;;;4954044;29;20206;-64
2021/01/24 04:18:31;;;;;;;6.23;4.80;;;0.60;99.90;;;;;;4953759;29;20527;-63
2021/01/24 04:20:57;;;;;;;5.17;4.53;;;0.60;99.90;;;;;;4954245;29;20170;-64
2021/01/24 04:23:22;;;;;;;5.87;4.27;;;0.60;99.90;;;;;;4953702;28;20288;-64
2021/01/24 04:25:48;;;;;;;7.97;5.20;;;0.60;99.90;;;;;;4953768;29;20189;-64
2021/01/24 04:28:13;;;;;;;6.53;4.53;;;0.70;99.90;;;;;;4953448;29;20182;-63
2021/01/24 04:30:39;;;;;;;5.70;5.10;;;0.60;99.90;;;;;;4953916;29;20182;-64
2021/01/24 04:33:06;;;;;;;10.40;4.83;;;0.70;99.90;;;;;;4953771;28;20202;-64
2021/01/24 04:35:32;;;;;;;8.70;5.70;;;0.70;99.90;;;;;;4953661;29;20206;-63
2021/01/24 04:37:57;;;;;;;7.77;4.27;;;0.60;99.90;;;;;;4953090;29;20208;-63
2021/01/24 04:40:23;;;;;;;7.33;5.20;;;0.70;99.90;;;;;;4954073;29;20370;-64
2021/01/24 04:42:49;;;;;;;4.63;4.00;;;0.70;99.90;;;;;;4953843;28;20277;-65
2021/01/24 04:45:15;;;;;;;5.90;3.93;;;0.60;99.90;;;;;;4953916;29;20205;-65
2021/01/24 04:47:45;;;;;;;6.77;4.93;;;0.60;99.90;;;;;;4933842;29;20185;-65
2021/01/24 04:50:12;;;;;;;7.70;6.13;;;0.60;99.90;;;;;;4934670;29;20547;-65
2021/01/24 04:52:38;;;;;;;7.63;5.10;;;0.60;99.90;;;;;;4953046;28;20206;-66
2021/01/24 04:55:04;;;;;;;8.90;6.00;;;0.60;99.90;;;;;;4953283;29;20189;-65
2021/01/24 04:57:30;;;;;;;8.27;6.00;;;0.70;99.90;;;;;;4953242;29;20173;-66
2021/01/24 04:59:56;;;;;;;10.67;6.27;;;0.70;99.90;;;;;;4953349;29;20178;-66
2021/01/24 05:02:22;;;;;;;9.67;6.20;;;0.70;99.90;;;;;;4953610;28;20182;-65
2021/01/24 05:04:49;;;;;;;14.90;7.07;;;0.70;99.90;;;;;;4953327;29;20220;-65
2021/01/24 05:07:14;;;;;;;9.57;6.77;;;0.70;99.90;;;;;;4952950;29;20178;-66
2021/01/24 05:09:41;;;;;;;12.27;7.73;;;0.70;99.90;;;;;;4952931;29;20181;-65
2021/01/24 05:12:08;;;;;;;15.07;9.83;;;0.70;99.90;;;;;;4953160;28;20210;-64
2021/01/24 05:14:33;;;;;;;15.60;7.93;;;0.70;99.90;;;;;;4953479;29;20170;-64
2021/01/24 05:16:59;;;;;;;14.07;9.40;;;0.70;99.90;;;;;;4952976;29;20194;-64
2021/01/24 05:19:25;;;;;;;15.47;9.70;;;0.70;99.90;;;;;;4953264;29;20558;-64
2021/01/24 05:21:52;;;;;;;21.50;11.17;;;0.70;99.90;;;;;;4953095;29;20182;-65
2021/01/24 05:24:19;;;;;;;16.30;9.77;;;0.70;99.90;;;;;;4953313;28;20190;-65
2021/01/24 05:26:47;;;;;;;17.60;10.23;;;0.70;99.90;;;;;;4953247;28;20185;-65
2021/01/24 05:29:23;;;;;;;17.80;11.03;;;0.70;99.90;;;;;;4953320;29;20170;-65
2021/01/24 05:31:51;;;;;;;20.17;10.33;;;0.70;99.90;;;;;;4953015;29;20166;-65
2021/01/24 05:34:21;;;;;;;23.67;13.07;;;0.70;99.90;;;;;;4953299;28;20225;-65
2021/01/24 05:36:47;;;;;;;18.67;11.83;;;0.70;99.90;;;;;;4953034;29;20171;-64
2021/01/24 05:39:13;;;;;;;24.70;13.73;;;0.70;99.90;;;;;;4953046;29;20187;-64
2021/01/24 05:41:40;;;;;;;29.50;14.73;;;0.70;99.90;;;;;;4953192;29;20290;-64
2021/01/24 05:44:13;;;;;;;25.53;12.23;;;0.70;99.90;;;;;;4953306;28;20473;-64
2021/01/24 05:46:39;;;;;;;30.30;14.57;;;0.80;99.90;;;;;;4953181;29;20592;-64
2021/01/24 05:49:06;;;;;;;39.27;16.97;;;0.80;99.90;;;;;;4952708;29;20282;-64
2021/01/24 05:51:32;;;;;;;39.47;18.57;;;0.70;99.90;;;;;;4952833;29;20668;-64
2021/01/24 05:53:58;;;;;;;35.03;16.93;;;0.70;99.90;;;;;;4953254;28;20206;-64
2021/01/24 05:56:23;;;;;;;43.20;18.00;;;0.80;99.90;;;;;;4953528;29;20524;-64
2021/01/24 05:58:57;;;;;;;32.17;14.87;;;0.80;99.90;;;;;;4952837;29;20269;-64
2021/01/24 06:01:24;;;;;;;30.93;14.07;;;0.80;99.90;;;;;;4952726;29;20185;-63
2021/01/24 06:03:52;;;;;;;42.80;17.17;;;0.80;99.90;;;;;;4952891;28;20229;-63
2021/01/24 06:06:18;;;;;;;35.80;14.50;;;0.80;99.90;;;;;;4953019;29;20187;-63
2021/01/24 06:08:43;;;;;;;44.57;18.20;;;0.80;99.90;;;;;;4952751;29;20342;-63
2021/01/24 06:11:11;;;;;;;55.80;19.80;;;0.80;99.90;;;;;;4952669;29;20659;-62
2021/01/24 06:13:37;;;;;;;53.17;20.07;;;0.80;99.90;;;;;;4952684;28;20206;-63
2021/01/24 06:16:12;;;;;;;39.33;18.37;;;0.80;99.90;;;;;;4952610;29;20186;-63
2021/01/24 06:18:59;;;;;;;37.37;18.63;;;0.80;99.90;;;;;;4952832;29;20178;-63
2021/01/24 06:21:45;;;;;;;33.87;15.17;;;0.80;99.90;;;;;;4955022;29;20186;-63
2021/01/24 06:24:23;;;;;;;47.97;18.37;;;0.70;99.90;;;;;;4956377;28;20194;-64
2021/01/24 06:26:56;;;;;;;43.70;16.67;;;0.80;99.90;;;;;;4936817;29;20187;-64
2021/01/24 06:29:25;;;;;;;43.07;16.87;;;0.80;99.90;;;;;;4954704;29;20656;-64
2021/01/24 06:31:53;;;;;;;41.83;17.97;;;0.80;99.90;;;;;;4955997;29;20199;-65
2021/01/24 06:34:39;;;;;;;37.60;16.80;;;0.80;99.90;;;;;;4955606;28;20194;-65
2021/01/24 06:37:20;;;;;;;41.60;17.67;;;0.90;99.90;;;;;;4954842;29;20170;-65
2021/01/24 06:39:50;;;;;;;43.13;17.53;;;0.90;99.90;;;;;;4955702;29;20244;-65
2021/01/24 06:42:35;;;;;;;47.10;18.20;;;0.90;99.90;;;;;;4955725;28;20696;-65
2021/01/24 06:45:02;;;;;;;39.73;18.20;;;0.80;99.90;;;;;;4936706;29;20605;-65
2021/01/24 06:47:39;;;;;;;30.23;13.63;;;0.90;99.90;;;;;;4936300;29;20171;-65
2021/01/24 06:50:34;;;;;;;25.87;11.63;;;0.90;99.90;;;;;;4936848;29;20170;-65
2021/01/24 06:53:14;;;;;;;30.50;13.20;;;0.80;99.90;;;;;;4943921;28;20206;-64
2021/01/24 06:55:51;;;;;;;31.07;14.27;;;0.80;99.90;;;;;;4952467;29;20209;-65
2021/01/24 06:58:30;;;;;;;33.13;14.17;;;0.80;99.90;;;;;;4945911;29;20175;-64
2021/01/24 07:01:35;;;;;;;29.53;15.13;;;0.80;99.90;;;;;;4950517;29;20183;-64
2021/01/24 07:04:24;;;;;;;35.27;15.00;;;0.80;99.90;;;;;;4935225;29;20584;-64
2021/01/24 07:06:55;;;;;;;32.03;15.13;;;0.80;99.90;;;;;;4945205;29;20178;-64
2021/01/24 07:09:27;;;;;;;37.00;16.63;;;0.70;99.90;;;;;;4955610;29;20185;-64
2021/01/24 07:12:00;;;;;;;35.70;15.40;;;0.90;99.90;;;;;;4955058;29;20182;-65
2021/01/24 07:14:32;;;;;;;41.20;14.87;;;1.00;99.90;;;;;;4955291;28;20222;-65
2021/01/24 07:17:07;;;;;;;39.90;16.33;;;1.00;99.90;;;;;;4953684;29;20407;-65
2021/01/24 07:19:37;;;;;;;50.07;18.30;;;0.90;99.90;;;;;;4954209;29;20177;-65
2021/01/24 07:22:04;;;;;;;40.73;16.97;;;0.90;99.90;;;;;;4945687;29;20183;-65
2021/01/24 07:24:31;;;;;;;42.50;17.00;;;0.90;99.90;;;;;;4942413;29;20179;-65
2021/01/24 07:26:57;;;;;;;40.47;16.33;;;0.90;99.90;;;;;;4954218;29;20182;-66
2021/01/24 07:29:24;;;;;;;42.87;17.27;;;0.90;99.90;;;;;;4954724;29;20214;-66
2021/01/24 07:31:50;;;;;;;46.10;18.47;;;0.90;99.90;;;;;;4954258;28;20177;-65
2021/01/24 07:34:20;;;;;;;40.50;18.60;;;1.00;99.90;;;;;;4954651;28;20206;-66
2021/01/24 07:36:50;;;;;;;57.73;20.23;;;1.00;99.90;;;;;;4937432;29;20682;-65
2021/01/24 07:39:16;;;;;;;56.60;23.70;;;1.10;99.90;;;;;;4954470;29;20229;-66
2021/01/24 07:41:43;;;;;;;42.60;19.70;;;1.10;99.90;;;;;;4954547;29;20174;-66
2021/01/24 07:44:08;;;;;;;51.43;28.90;;;1.00;99.90;;;;;;4953762;28;20218;-66
2021/01/24 07:46:34;;;;;;;54.70;26.63;;;1.00;99.90;;;;;;4954424;29;20178;-66
2021/01/24 07:49:00;;;;;;;61.80;33.40;;;1.00;99.90;;;;;;4951075;29;20644;-65
2021/01/24 07:51:26;;;;;;;55.53;28.87;;;1.00;99.90;;;;;;4945237;29;20182;-65
2021/01/24 07:53:53;;;;;;;45.43;21.53;;;1.00;99.90;;;;;;4953494;29;20640;-65
2021/01/24 07:56:19;;;;;;;34.53;18.73;;;1.10;99.90;;;;;;4950791;28;20174;-65
2021/01/24 07:58:46;;;;;;;38.33;20.53;;;1.20;99.90;;;;;;4949738;29;20182;-65
2021/01/24 08:01:13;;;;;;;28.40;16.90;;;1.20;99.90;;;;;;4942116;28;20178;-64
2021/01/24 08:03:41;;;;;;;21.67;12.43;;;1.20;99.90;;;;;;4959509;28;20195;-64
2021/01/24 08:06:07;;;;;;;39.57;15.83;;;1.20;99.90;;;;;;4934955;29;20190;-65
2021/01/24 08:08:35;;;;;;;44.63;18.37;;;1.30;99.90;;;;;;4943079;29;20187;-64
2021/01/24 08:11:01;;;;;;;42.60;21.67;;;1.30;99.90;;;;;;4939577;29;20191;-65
2021/01/24 08:13:27;;;;;;;25.30;12.97;;;1.30;99.90;;;;;;4935052;29;20206;-63
2021/01/24 08:15:53;;;;;;;21.50;12.70;;;1.30;99.90;;;;;;4934757;29;20174;-64
2021/01/24 08:18:20;;;;;;;31.80;15.83;;;1.30;99.90;;;;;;4949680;29;20637;-64
2021/01/24 08:20:46;;;;;;;43.03;21.93;;;1.40;99.90;;;;;;4953815;29;20186;-64
2021/01/24 08:23:13;;;;;;;33.60;16.50;;;1.40;99.90;;;;;;4940601;29;20281;-64
2021/01/24 08:25:40;;;;;;;27.83;13.97;;;1.40;99.90;;;;;;4941819;29;20174;-64
2021/01/24 08:28:07;;;;;;;39.73;18.57;;;1.40;99.90;;;;;;4953721;29;20213;-64
2021/01/24 08:30:38;;;;;;;23.43;15.20;;;1.40;99.90;;;;;;4948168;29;20178;-64
2021/01/24 08:33:08;;;;;;;18.67;11.13;;;1.40;99.90;;;;;;4952389;29;20296;-64
2021/01/24 08:35:34;;;;;;;30.90;17.70;;;1.40;99.90;;;;;;4948422;29;20174;-64
2021/01/24 08:38:01;;;;;;;38.87;16.67;;;1.50;99.90;;;;;;4934162;29;20270;-64
2021/01/24 08:40:33;;;;;;;27.27;14.97;;;1.50;99.90;;;;;;4937818;29;20178;-64
2021/01/24 08:43:01;;;;;;;30.23;15.27;;;1.60;99.90;;;;;;4940078;29;20295;-65
2021/01/24 08:45:28;;;;;;;31.10;16.17;;;1.60;99.90;;;;;;4937360;29;20185;-64
2021/01/24 08:47:56;;;;;;;30.83;16.37;;;1.70;99.90;;;;;;4953175;29;20542;-65
2021/01/24 08:50:22;;;;;;;30.40;16.00;;;1.70;99.90;;;;;;4951708;29;20233;-65
2021/01/24 08:52:58;;;;;;;14.73;8.87;;;1.80;99.90;;;;;;4934206;29;20580;-65
2021/01/24 08:55:23;;;;;;;20.37;10.70;;;1.80;99.90;;;;;;4935498;29;20617;-64
2021/01/24 08:57:49;;;;;;;12.10;8.53;;;1.80;99.90;;;;;;4952991;29;20213;-64
2021/01/24 09:00:16;;;;;;;19.93;10.20;;;1.80;99.90;;;;;;4938942;29;20190;-65
2021/01/24 09:02:42;;;;;;;11.03;7.83;;;1.80;99.90;;;;;;4938719;29;20198;-65
2021/01/24 09:05:32;;;;;;;17.97;10.33;;;1.80;99.90;;;;;;4934214;29;20539;-65
2021/01/24 09:07:58;;;;;;;19.57;10.63;;;1.80;99.90;;;;;;4948563;29;20257;-65
2021/01/24 09:10:30;;;;;;;9.77;6.87;;;1.80;99.90;;;;;;4953511;29;20188;-64
2021/01/24 09:12:57;;;;;;;13.07;7.57;;;1.80;99.90;;;;;;4938658;29;20223;-63
2021/01/24 09:15:24;;;;;;;9.70;5.93;;;1.80;99.90;;;;;;4934263;29;20864;-63
2021/01/24 09:17:52;;;;;;;20.20;12.03;;;1.90;99.90;;;;;;4946451;29;20205;-64
2021/01/24 09:20:20;;;;;;;12.77;8.10;;;1.90;99.90;;;;;;4953387;29;20532;-65
2021/01/24 09:22:46;;;;;;;23.43;13.07;;;2.00;99.90;;;;;;4941034;29;20198;-64
2021/01/24 09:25:12;;;;;;;20.07;10.23;;;2.00;99.90;;;;;;4934178;29;20174;-65
2021/01/24 09:27:38;;;;;;;21.87;12.63;;;2.10;99.90;;;;;;4943809;29;20676;-66
2021/01/24 09:30:07;;;;;;;22.17;9.43;;;2.30;99.90;;;;;;4927819;29;20187;-64
2021/01/24 09:32:33;;;;;;;18.33;10.87;;;2.30;99.90;;;;;;4933864;29;20215;-64
2021/01/24 09:34:58;;;;;;;21.00;11.60;;;2.30;99.90;;;;;;4940698;29;20197;-64
2021/01/24 09:37:24;;;;;;;16.80;10.43;;;2.30;99.90;;;;;;4953484;29;20173;-64
2021/01/24 09:39:50;;;;;;;18.17;10.37;;;2.30;99.90;;;;;;4947626;29;20656;-65
2021/01/24 09:42:16;;;;;;;9.70;6.27;;;2.30;99.90;;;;;;4933992;29;20439;-65
2021/01/24 09:44:41;;;;;;;12.77;7.77;;;2.40;99.90;;;;;;4937456;29;20193;-64
2021/01/24 09:47:07;;;;;;;12.37;6.40;;;2.30;99.90;;;;;;4952115;29;20728;-65
2021/01/24 09:49:32;;;;;;;14.87;9.30;;;2.20;99.90;;;;;;4947182;29;20175;-64
2021/01/24 09:51:58;;;;;;;12.33;7.40;;;2.20;99.90;;;;;;4933660;29;20175;-65
2021/01/24 09:54:23;;;;;;;15.20;9.17;;;2.20;99.90;;;;;;4946110;28;20272;-65
2021/01/24 09:56:49;;;;;;;14.77;9.43;;;2.30;99.90;;;;;;4956078;29;20629;-65
2021/01/24 09:59:15;;;;;;;21.87;11.80;;;2.30;99.90;;;;;;4956302;29;20182;-65
2021/01/24 10:01:42;;;;;;;11.80;6.83;;;2.20;99.90;;;;;;4956268;29;20170;-64
2021/01/24 10:04:07;;;;;;;17.77;11.30;;;2.20;99.90;;;;;;4956311;28;20218;-65
2021/01/24 10:06:33;;;;;;;13.47;10.87;;;2.20;99.90;;;;;;4956367;29;20212;-64
2021/01/24 10:09:00;;;;;;;23.57;16.37;;;2.20;99.90;;;;;;4955988;29;20554;-64
2021/01/24 10:11:26;;;;;;;15.83;10.57;;;2.30;99.90;;;;;;4956502;29;20194;-65
2021/01/24 10:13:51;;;;;;;20.93;12.43;;;2.40;99.90;;;;;;4955975;28;20210;-64
2021/01/24 10:16:17;;;;;;;19.77;13.10;;;2.50;99.90;;;;;;4956409;29;20205;-65
2021/01/24 10:18:42;;;;;;;17.17;11.37;;;2.50;99.90;;;;;;4955794;29;20183;-65
2021/01/24 10:21:08;;;;;;;18.93;11.77;;;2.50;99.90;;;;;;4956119;29;20174;-65
2021/01/24 10:23:34;;;;;;;21.13;12.30;;;2.60;99.90;;;;;;4955987;28;20197;-65
2021/01/24 10:26:00;;;;;;;13.47;9.20;;;2.60;99.90;;;;;;4955579;29;20179;-65
2021/01/24 10:28:26;;;;;;;21.17;13.40;;;2.70;99.90;;;;;;4955693;29;20657;-66
2021/01/24 10:30:52;;;;;;;18.70;12.60;;;2.70;99.90;;;;;;4955756;29;20183;-66
2021/01/24 10:33:19;;;;;;;21.33;13.37;;;2.80;99.90;;;;;;4955957;28;20210;-66
2021/01/24 10:35:45;;;;;;;17.37;11.43;;;2.90;99.90;;;;;;4955570;29;20174;-65
2021/01/24 10:38:11;;;;;;;19.93;12.20;;;2.90;99.90;;;;;;4955635;29;20178;-65
2021/01/24 10:40:37;;;;;;;14.80;10.93;;;2.80;99.90;;;;;;4955784;29;20636;-64
2021/01/24 10:43:04;;;;;;;19.23;12.63;;;2.70;99.90;;;;;;4955562;28;20206;-65
2021/01/24 10:45:30;;;;;;;16.40;11.87;;;2.70;99.90;;;;;;4955703;29;20197;-64
2021/01/24 10:48:00;;;;;;;25.50;14.60;;;2.70;99.90;;;;;;4955152;29;20174;-64
2021/01/24 10:50:26;;;;;;;21.60;12.43;;;2.70;99.90;;;;;;4955541;29;20178;-65
2021/01/24 10:52:51;;;;;;;18.33;11.67;;;2.80;99.90;;;;;;4954262;28;20263;-64
2021/01/24 10:55:17;;;;;;;15.50;10.13;;;2.90;99.90;;;;;;4940878;29;20691;-65
2021/01/24 10:57:43;;;;;;;23.00;14.70;;;3.00;99.90;;;;;;4948341;29;20171;-65
2021/01/24 11:00:09;;;;;;;19.43;12.20;;;3.10;99.90;;;;;;4936533;29;20171;-65
2021/01/24 11:02:35;;;;;;;10.20;7.47;;;3.30;99.90;;;;;;4949291;28;20209;-64
2021/01/24 11:05:02;;;;;;;25.93;16.20;;;3.50;99.90;;;;;;4955173;28;20289;-65
2021/01/24 11:07:28;;;;;;;12.90;6.50;;;3.50;99.90;;;;;;4954361;29;20269;-65
2021/01/24 11:09:54;;;;;;;14.43;8.67;;;3.50;99.90;;;;;;4954872;29;20188;-65
2021/01/24 11:12:20;;;;;;;10.00;7.70;;;3.40;99.90;;;;;;4952438;29;20206;-65
2021/01/24 11:14:46;;;;;;;20.90;11.27;;;3.40;99.90;;;;;;4936003;29;20590;-65
2021/01/24 11:17:12;;;;;;;26.43;10.80;;;3.40;99.90;;;;;;4946404;29;20178;-65
2021/01/24 11:19:38;;;;;;;19.13;10.60;;;3.40;99.90;;;;;;4935967;29;20203;-65
2021/01/24 11:22:04;;;;;;;15.93;11.13;;;3.60;99.90;;;;;;4947474;29;20193;-65
2021/01/24 11:24:31;;;;;;;16.40;11.47;;;3.70;99.90;;;;;;4955144;29;20522;-66
2021/01/24 11:26:57;;;;;;;16.53;8.37;;;3.70;99.90;;;;;;4954715;29;20170;-65
2021/01/24 11:29:24;;;;;;;16.97;10.50;;;3.70;99.90;;;;;;4955093;29;20594;-65
2021/01/24 11:31:50;;;;;;;15.90;10.63;;;3.70;99.90;;;;;;4954691;29;20197;-64
2021/01/24 11:34:16;;;;;;;6.43;5.83;;;3.80;99.90;;;;;;4942784;29;20269;-65
2021/01/24 11:36:42;;;;;;;17.60;12.30;;;3.80;99.90;;;;;;4935645;29;20175;-65
2021/01/24 11:39:07;;;;;;;14.97;10.57;;;3.80;99.90;;;;;;4935626;29;20724;-65
2021/01/24 11:41:33;;;;;;;9.47;6.93;;;3.80;99.90;;;;;;4935613;29;20514;-65
2021/01/24 11:43:59;;;;;;;17.03;11.50;;;3.80;99.90;;;;;;4939880;29;20217;-64
2021/01/24 11:46:25;;;;;;;15.10;10.93;;;3.80;99.90;;;;;;4954254;29;20182;-65
2021/01/24 11:48:50;;;;;;;13.07;8.97;;;4.00;99.90;;;;;;4954044;29;20182;-65
2021/01/24 11:51:16;;;;;;;16.20;11.90;;;4.30;99.90;;;;;;4954438;29;20202;-65
2021/01/24 11:53:42;;;;;;;19.93;11.27;;;4.60;99.90;;;;;;4953476;28;20210;-65
2021/01/24 11:56:08;;;;;;;11.30;7.40;;;4.80;99.90;;;;;;4954048;29;20178;-65
2021/01/24 11:58:33;;;;;;;18.60;11.70;;;4.90;99.90;;;;;;4953934;29;20655;-65
2021/01/24 12:00:59;;;;;;;16.10;10.77;;;4.90;99.90;;;;;;4954184;29;20182;-65
2021/01/24 12:03:25;;;;;;;14.27;9.40;;;5.00;99.90;;;;;;4953805;28;20209;-65
2021/01/24 12:05:50;;;;;;;14.07;10.30;;;5.40;99.90;;;;;;4954035;29;20178;-64
2021/01/24 12:08:17;;;;;;;15.27;11.00;;;5.80;99.90;;;;;;4953678;29;20236;-65
2021/01/24 12:10:42;;;;;;;18.50;13.57;;;6.20;99.90;;;;;;4953410;29;20707;-64
2021/01/24 12:13:08;;;;;;;12.77;9.63;;;6.50;99.90;;;;;;4953358;28;20213;-65
2021/01/24 12:15:33;;;;;;;10.67;8.23;;;6.90;99.90;;;;;;4953027;29;20233;-64
2021/01/24 12:17:59;;;;;;;10.80;7.57;;;7.20;99.90;;;;;;4953493;28;20229;-64
2021/01/24 12:20:25;;;;;;;12.83;7.40;;;7.50;99.90;;;;;;4937281;29;20258;-64
2021/01/24 12:22:51;;;;;;;19.90;11.03;;;7.90;99.90;;;;;;4934990;29;20250;-64
2021/01/24 12:25:17;;;;;;;10.77;8.03;;;8.70;99.90;;;;;;4953621;29;20182;-64
2021/01/24 12:27:42;;;;;;;11.90;8.70;;;9.20;99.90;;;;;;4952708;29;20525;-63
2021/01/24 12:30:09;;;;;;;12.57;8.90;;;9.00;99.90;;;;;;4935815;29;20191;-64
2021/01/24 12:32:35;;;;;;;15.90;8.47;;;8.20;99.90;;;;;;4938177;29;20217;-63
2021/01/24 12:35:01;;;;;;;8.67;7.03;;;7.70;99.90;;;;;;4934588;29;20551;-63
2021/01/24 12:37:26;;;;;;;15.37;8.00;;;6.80;99.90;;;;;;4946258;29;20542;-63
2021/01/24 12:39:52;;;;;;;15.60;8.20;;;6.20;99.90;;;;;;4950294;29;20183;-63
2021/01/24 12:42:18;;;;;;;15.40;9.77;;;5.80;99.90;;;;;;4934526;29;20179;-63
2021/01/24 12:44:44;;;;;;;12.87;7.53;;;5.70;99.90;;;;;;4944536;29;20190;-63
2021/01/24 12:47:10;;;;;;;15.53;8.13;;;6.00;99.90;;;;;;4953372;29;20544;-63
2021/01/24 12:49:37;;;;;;;13.47;7.73;;;6.00;99.90;;;;;;4943896;29;20179;-63